Time;durP1;ratioP1;P1;durP2;ratioP2;P2;SDS_P1;SDS_P2;PMS_P1;PMS_P2;Temp;Humidity;BMP_temperature;BMP_pressure;BME280_temperature;BME280_humidity;BME280_pressure;Samples;Min_cycle;Max_cycle;Signal;HPM_P1;HPM_P2
2023/09/09 00:02:29;;;;;;;15.65;5.58;;;;;;;12.80;58.95;100678.83;1638879;86;21371;-56
2023/09/09 00:05:41;;;;;;;11.80;5.22;;;;;;;12.75;59.02;100681.26;1669496;84;21387;-55
2023/09/09 00:08:47;;;;;;;13.53;5.78;;;;;;;12.69;59.02;100681.99;1669000;86;21896;-56
2023/09/09 00:11:53;;;;;;;10.68;5.28;;;;;;;12.66;59.18;100684.24;1668781;86;21245;-56
2023/09/09 00:14:59;;;;;;;11.83;5.70;;;;;;;12.63;59.32;100678.61;1668859;85;21379;-57
2023/09/09 00:18:06;;;;;;;10.18;5.15;;;;;;;12.64;59.50;100672.06;1638639;87;21504;-56
2023/09/09 00:21:11;;;;;;;10.60;5.20;;;;;;;12.63;59.59;100669.00;1638569;87;21487;-56
2023/09/09 00:24:16;;;;;;;10.82;5.22;;;;;;;12.63;59.73;100676.37;1669931;85;21860;-56
2023/09/09 00:27:23;;;;;;;12.50;4.83;;;;;;;12.63;59.90;100662.12;1670356;84;21561;-55
2023/09/09 00:30:30;;;;;;;9.73;5.00;;;;;;;12.67;59.98;100673.61;1638675;87;21240;-55
2023/09/09 00:33:36;;;;;;;10.20;4.90;;;;;;;12.66;60.01;100671.88;1669016;85;21710;-55
2023/09/09 00:36:42;;;;;;;13.05;5.30;;;;;;;12.62;59.99;100668.64;1639522;87;21322;-55
2023/09/09 00:39:48;;;;;;;9.75;5.33;;;;;;;12.59;60.05;100669.55;1668864;85;21774;-55
2023/09/09 00:42:54;;;;;;;12.05;5.33;;;;;;;12.57;60.11;100670.23;1638838;87;21707;-56
2023/09/09 00:45:59;;;;;;;10.40;5.22;;;;;;;12.54;60.17;100671.44;1678547;84;21267;-56
2023/09/09 00:49:06;;;;;;;10.35;5.35;;;;;;;12.52;60.26;100668.04;1660447;86;21236;-55
2023/09/09 00:52:13;;;;;;;14.03;5.45;;;;;;;12.49;60.36;100675.27;1669301;85;21320;-55
2023/09/09 00:55:19;;;;;;;9.65;5.55;;;;;;;12.45;60.33;100671.16;1669136;85;21209;-55
2023/09/09 00:58:24;;;;;;;11.15;4.80;;;;;;;12.40;60.42;100677.70;1668977;86;21233;-54
2023/09/09 01:01:32;;;;;;;9.48;5.60;;;;;;;12.38;60.55;100674.31;1615481;85;21272;-54
2023/09/09 01:04:39;;;;;;;14.20;4.87;;;;;;;12.37;60.70;100658.02;1644221;86;21367;-55
2023/09/09 01:07:56;;;;;;;9.78;5.12;;;;;;;12.34;60.74;100666.08;1643733;87;21387;-56
2023/09/09 01:11:03;;;;;;;12.23;5.03;;;;;;;12.32;60.83;100657.16;1643764;87;21864;-55
2023/09/09 01:14:11;;;;;;;10.35;5.30;;;;;;;12.28;60.86;100655.83;1643895;87;21375;-55
2023/09/09 01:17:16;;;;;;;10.23;5.12;;;;;;;12.25;60.92;100648.45;1643855;87;21837;-55
2023/09/09 01:20:24;;;;;;;9.58;5.60;;;;;;;12.23;61.04;100656.88;1652107;87;21322;-56
2023/09/09 01:23:31;;;;;;;16.75;5.55;;;;;;;12.21;61.16;100652.08;1643819;87;21380;-55
2023/09/09 01:26:38;;;;;;;12.03;5.78;;;;;;;12.20;61.27;100650.37;1628530;87;21383;-55
2023/09/09 01:29:44;;;;;;;10.48;5.08;;;;;;;12.20;61.39;100649.00;1631858;87;21784;-55
2023/09/09 01:32:50;;;;;;;11.33;5.45;;;;;;;12.19;61.51;100648.68;1643555;87;21410;-56
2023/09/09 01:35:56;;;;;;;11.93;5.20;;;;;;;12.18;61.58;100645.58;1643805;87;22266;-55
2023/09/09 01:39:03;;;;;;;11.03;5.25;;;;;;;12.17;61.72;100646.63;1644077;87;21403;-55
2023/09/09 01:42:10;;;;;;;12.55;5.17;;;;;;;12.20;61.91;100650.37;1643739;87;21360;-55
2023/09/09 01:45:16;;;;;;;12.98;5.42;;;;;;;12.25;62.13;100642.47;1643722;87;21419;-55
2023/09/09 01:48:21;;;;;;;13.25;5.20;;;;;;;12.30;62.26;100647.41;1635321;87;21371;-55
2023/09/09 01:51:28;;;;;;;14.93;5.70;;;;;;;12.34;62.39;100649.60;1643597;87;21911;-55
2023/09/09 01:54:34;;;;;;;10.30;5.05;;;;;;;12.37;62.49;100641.00;1644121;87;21447;-55
2023/09/09 01:57:40;;;;;;;10.00;4.83;;;;;;;12.40;62.50;100638.44;1644204;87;21908;-57
2023/09/09 02:00:45;;;;;;;9.95;4.97;;;;;;;12.39;62.52;100644.94;1643782;87;21383;-55
2023/09/09 02:03:52;;;;;;;11.90;5.05;;;;;;;12.39;62.53;100638.94;1669447;84;21408;-56
2023/09/09 02:06:59;;;;;;;15.63;5.62;;;;;;;12.38;62.51;100646.86;1673327;85;21394;-57
2023/09/09 02:10:04;;;;;;;9.90;4.87;;;;;;;12.37;62.48;100643.75;1673197;85;21367;-55
2023/09/09 02:13:11;;;;;;;14.35;5.30;;;;;;;12.36;62.56;100649.42;1673480;84;21430;-55
2023/09/09 02:16:18;;;;;;;13.50;4.92;;;;;;;12.36;62.66;100650.29;1657166;86;21384;-55
2023/09/09 02:19:25;;;;;;;10.55;5.10;;;;;;;12.33;62.58;100646.53;1673244;85;21364;-56
2023/09/09 02:22:31;;;;;;;10.82;4.62;;;;;;;12.33;62.68;100650.66;1673258;85;21893;-56
2023/09/09 02:25:37;;;;;;;9.95;4.78;;;;;;;12.32;62.74;100651.67;1673596;85;21493;-56
2023/09/09 02:28:46;;;;;;;12.63;4.85;;;;;;;12.35;62.86;100659.58;1658783;86;21375;-54
2023/09/09 02:31:53;;;;;;;11.55;4.70;;;;;;;12.37;62.98;100657.48;1673198;85;21955;-53
2023/09/09 02:34:59;;;;;;;8.35;4.67;;;;;;;12.38;63.07;100656.46;1673451;85;21399;-55
2023/09/09 02:38:06;;;;;;;9.83;4.40;;;;;;;12.40;63.10;100650.25;1673232;85;21426;-56
2023/09/09 02:41:11;;;;;;;8.68;5.15;;;;;;;12.40;63.16;100658.48;1662462;85;21949;-56
2023/09/09 02:44:19;;;;;;;10.55;4.85;;;;;;;12.42;63.23;100667.41;1673231;85;21383;-57
2023/09/09 02:47:25;;;;;;;10.60;5.35;;;;;;;12.42;63.28;100663.28;1673251;85;21391;-58
2023/09/09 02:50:33;;;;;;;9.18;4.92;;;;;;;12.40;63.31;100668.09;1673229;85;21770;-56
2023/09/09 02:53:38;;;;;;;12.60;5.65;;;;;;;12.39;63.34;100659.53;1673975;85;21379;-58
2023/09/09 02:56:45;;;;;;;10.25;4.72;;;;;;;12.38;63.38;100666.07;1665992;85;21363;-57
2023/09/09 02:59:52;;;;;;;14.03;5.67;;;;;;;12.37;63.40;100666.25;1671734;86;21749;-56
2023/09/09 03:02:58;;;;;;;10.65;6.67;;;;;;;12.34;63.49;100672.08;1673952;83;21779;-56
2023/09/09 03:06:07;;;;;;;12.78;6.10;;;;;;;12.32;63.55;100672.26;1672718;86;21399;-55
2023/09/09 03:09:12;;;;;;;17.10;7.15;;;;;;;12.31;63.58;100680.16;1673717;85;21415;-55
2023/09/09 03:12:20;;;;;;;18.15;10.10;;;;;;;12.28;63.44;100680.53;1642321;87;21375;-56
2023/09/09 03:15:28;;;;;;;16.10;9.88;;;;;;;12.22;63.26;100673.02;1673011;85;21371;-56
2023/09/09 03:18:34;;;;;;;13.72;7.75;;;;;;;12.18;63.21;100677.68;1673284;85;21289;-56
2023/09/09 03:21:41;;;;;;;11.60;7.70;;;;;;;12.12;63.15;100681.98;1672698;85;22801;-56
2023/09/09 03:24:46;;;;;;;11.05;6.83;;;;;;;12.07;63.22;100677.53;1672651;85;21363;-55
2023/09/09 03:27:52;;;;;;;13.90;6.47;;;;;;;12.08;63.43;100675.66;1672867;85;21237;-56
2023/09/09 03:31:05;;;;;;;11.93;6.17;;;;;;;12.07;63.58;100687.14;1672802;85;21419;-56
2023/09/09 03:34:11;;;;;;;12.13;5.10;;;;;;;12.08;63.74;100681.47;1619340;86;21303;-57
2023/09/09 03:37:18;;;;;;;11.60;5.58;;;;;;;12.11;63.86;100695.38;1652302;87;21761;-56
2023/09/09 03:40:24;;;;;;;12.85;5.60;;;;;;;12.12;63.95;100687.47;1682864;85;21856;-54
2023/09/09 03:43:29;;;;;;;11.57;5.03;;;;;;;12.14;64.03;100686.78;1652225;87;21224;-56
2023/09/09 03:46:36;;;;;;;11.15;4.87;;;;;;;12.17;64.13;100680.92;1674914;85;21938;-54
2023/09/09 03:49:44;;;;;;;14.75;5.70;;;;;;;12.19;64.14;100680.24;1673343;85;21395;-54
2023/09/09 03:52:50;;;;;;;8.60;4.87;;;;;;;12.20;64.17;100696.17;1672945;85;21396;-56
2023/09/09 03:55:56;;;;;;;12.75;5.08;;;;;;;12.23;64.23;100691.69;1673134;86;21367;-54
2023/09/09 03:59:02;;;;;;;13.65;5.70;;;;;;;12.23;64.32;100702.67;1642337;87;21387;-56
2023/09/09 04:02:07;;;;;;;13.53;5.45;;;;;;;12.24;64.35;100701.12;1673091;86;21739;-54
2023/09/09 04:05:14;;;;;;;12.70;5.00;;;;;;;12.24;64.42;100694.80;1643665;85;21392;-55
2023/09/09 04:08:21;;;;;;;10.10;5.08;;;;;;;12.27;64.53;100703.53;1673220;85;21953;-54
2023/09/09 04:11:27;;;;;;;12.55;6.12;;;;;;;12.30;64.60;100705.92;1673121;85;21895;-55
2023/09/09 04:14:32;;;;;;;9.48;4.95;;;;;;;12.36;64.69;100716.18;1674246;85;21371;-53
2023/09/09 04:17:40;;;;;;;10.30;5.00;;;;;;;12.38;64.73;100714.12;1674383;85;21431;-56
2023/09/09 04:20:46;;;;;;;13.68;5.53;;;;;;;12.42;64.83;100715.45;1643322;86;21353;-54
2023/09/09 04:23:54;;;;;;;10.10;5.40;;;;;;;12.46;64.91;100715.95;1698309;84;21284;-56
2023/09/09 04:26:59;;;;;;;10.45;5.12;;;;;;;12.51;65.03;100717.11;1699897;83;21279;-55
2023/09/09 04:30:05;;;;;;;8.18;4.55;;;;;;;12.58;65.11;100722.74;1670629;85;21240;-57
2023/09/09 04:33:15;;;;;;;10.80;4.50;;;;;;;12.64;65.14;100719.27;1658231;85;21437;-55
2023/09/09 04:36:19;;;;;;;10.48;5.10;;;;;;;12.66;65.10;100716.70;1653578;85;21221;-54
2023/09/09 04:39:24;;;;;;;12.25;4.53;;;;;;;12.68;65.14;100714.63;1662512;86;21228;-54
2023/09/09 04:42:35;;;;;;;12.47;4.78;;;;;;;12.72;65.23;100717.34;1672372;85;21737;-55
2023/09/09 04:45:41;;;;;;;9.30;4.50;;;;;;;12.79;65.30;100731.20;1671521;85;21252;-55
2023/09/09 04:48:41;;;;;;;11.15;4.58;;;;;;;12.85;65.37;100732.71;1661332;85;21889;-55
2023/09/09 04:51:47;;;;;;;12.07;4.85;;;;;;;12.90;65.40;100729.41;1669055;86;21454;-56
2023/09/09 04:54:53;;;;;;;13.03;4.20;;;;;;;12.95;65.48;100743.47;1678273;85;21765;-55
2023/09/09 04:57:59;;;;;;;9.18;4.60;;;;;;;13.01;65.47;100746.89;1671490;86;21229;-55
2023/09/09 05:01:05;;;;;;;11.10;5.55;;;;;;;13.06;65.45;100738.95;1670282;84;21383;-55
2023/09/09 05:04:12;;;;;;;11.03;4.92;;;;;;;13.10;65.46;100737.53;1643026;86;21420;-55
2023/09/09 05:07:19;;;;;;;8.85;4.70;;;;;;;13.15;65.51;100730.46;1675438;83;21431;-58
2023/09/09 05:10:27;;;;;;;9.20;4.10;;;;;;;13.20;65.57;100732.66;1642936;87;21400;-55
2023/09/09 05:13:32;;;;;;;10.55;4.20;;;;;;;13.27;65.68;100742.72;1673983;85;21848;-56
2023/09/09 05:16:38;;;;;;;9.85;4.90;;;;;;;13.36;65.73;100741.64;1673571;85;21640;-56
2023/09/09 05:19:44;;;;;;;17.45;5.75;;;;;;;13.43;65.76;100758.22;1643767;87;21416;-54
2023/09/09 05:22:50;;;;;;;9.25;4.83;;;;;;;13.48;65.83;100762.66;1614453;88;21325;-54
2023/09/09 05:25:57;;;;;;;10.43;4.25;;;;;;;13.56;65.93;100767.25;1678507;85;21995;-57
2023/09/09 05:29:02;;;;;;;12.53;4.50;;;;;;;13.64;66.01;100774.06;1674659;85;21864;-55
2023/09/09 05:32:08;;;;;;;10.82;4.67;;;;;;;13.70;66.12;100779.64;1659515;85;21741;-56
2023/09/09 05:35:18;;;;;;;9.33;4.87;;;;;;;13.79;66.20;100790.06;1662169;86;21917;-55
2023/09/09 05:38:26;;;;;;;9.53;4.10;;;;;;;13.88;66.30;100784.80;1673280;85;21379;-56
2023/09/09 05:41:32;;;;;;;8.43;3.35;;;;;;;13.97;66.40;100791.41;1657017;86;21962;-54
2023/09/09 05:44:38;;;;;;;9.45;3.60;;;;;;;14.07;66.51;100787.88;1642497;86;21407;-56
2023/09/09 05:47:45;;;;;;;8.18;3.35;;;;;;;14.20;66.64;100783.95;1672959;86;21391;-54
2023/09/09 05:50:55;;;;;;;11.08;4.05;;;;;;;14.36;66.78;100802.22;1643254;86;21407;-56
2023/09/09 05:54:02;;;;;;;8.03;3.98;;;;;;;14.48;66.77;100807.56;1672983;85;21345;-55
2023/09/09 05:57:09;;;;;;;8.50;5.45;;;;;;;14.60;66.83;100810.20;1674516;85;21357;-55
2023/09/09 06:00:17;;;;;;;9.70;3.95;;;;;;;14.72;66.85;100812.78;1674830;85;21371;-55
2023/09/09 06:03:26;;;;;;;8.40;3.67;;;;;;;14.83;66.88;100806.27;1674818;84;21374;-56
2023/09/09 06:06:34;;;;;;;11.35;3.98;;;;;;;14.94;66.85;100815.41;1675433;82;21351;-55
2023/09/09 06:09:42;;;;;;;9.28;3.60;;;;;;;15.03;66.82;100812.55;1684177;85;21379;-55
2023/09/09 06:12:50;;;;;;;10.20;3.15;;;;;;;15.11;66.76;100817.39;1684304;84;21486;-57
2023/09/09 06:15:56;;;;;;;9.40;3.50;;;;;;;15.19;66.76;100828.31;1684088;85;21426;-57
2023/09/09 06:19:02;;;;;;;9.83;3.10;;;;;;;15.27;66.74;100819.91;1684512;84;21390;-56
2023/09/09 06:22:10;;;;;;;5.80;3.20;;;;;;;15.35;66.72;100827.23;1684642;85;21382;-56
2023/09/09 06:25:18;;;;;;;7.45;3.10;;;;;;;15.42;66.66;100819.91;1684116;85;21470;-56
2023/09/09 06:28:23;;;;;;;7.42;4.50;;;;;;;15.49;66.66;100836.02;1685393;84;21232;-54
2023/09/09 06:31:29;;;;;;;6.83;3.37;;;;;;;15.57;66.67;100845.00;1687632;84;21400;-56
2023/09/09 06:34:35;;;;;;;7.90;3.45;;;;;;;15.68;66.67;100856.06;1672372;86;21364;-54
2023/09/09 06:37:43;;;;;;;9.20;4.00;;;;;;;15.79;66.62;100860.50;1680498;85;21248;-55
2023/09/09 06:40:54;;;;;;;6.42;3.10;;;;;;;15.87;66.43;100862.30;1682771;85;21387;-54
2023/09/09 06:44:00;;;;;;;8.25;3.10;;;;;;;15.82;66.15;100860.14;1682501;85;21379;-55
2023/09/09 06:47:06;;;;;;;9.70;4.25;;;;;;;15.81;66.11;100859.79;1683071;85;21395;-55
2023/09/09 06:50:13;;;;;;;8.48;4.45;;;;;;;15.85;66.06;100854.22;1683999;84;21795;-55
2023/09/09 06:53:22;;;;;;;13.38;2.95;;;;;;;15.93;66.00;100867.02;1677165;84;21844;-54
2023/09/09 06:56:28;;;;;;;12.13;3.08;;;;;;;16.05;66.08;100873.70;1672699;85;21904;-57
2023/09/09 06:59:34;;;;;;;6.25;3.35;;;;;;;16.22;66.15;100886.20;1689517;84;21410;-54
2023/09/09 07:02:41;;;;;;;6.05;2.40;;;;;;;16.33;66.03;100885.65;1681320;85;21256;-54
2023/09/09 07:05:49;;;;;;;4.37;2.27;;;;;;;16.37;65.78;100882.80;1681886;85;21287;-57
2023/09/09 07:08:55;;;;;;;7.33;2.50;;;;;;;16.35;65.59;100884.90;1678726;79;21256;-54
2023/09/09 07:12:02;;;;;;;8.28;3.45;;;;;;;16.39;65.51;100890.36;1671498;85;21255;-55
2023/09/09 07:15:09;;;;;;;12.10;3.60;;;;;;;16.47;65.56;100895.78;1671587;86;21232;-55
2023/09/09 07:18:15;;;;;;;7.85;2.22;;;;;;;16.61;65.48;100901.72;1671773;86;21775;-55
2023/09/09 07:21:22;;;;;;;8.28;1.87;;;;;;;16.70;65.31;100913.48;1671853;86;21273;-54
2023/09/09 07:24:31;;;;;;;4.10;1.70;;;;;;;16.71;64.99;100909.14;1658655;86;21222;-54
2023/09/09 07:27:37;;;;;;;5.50;1.90;;;;;;;16.66;64.72;100906.12;1658228;86;21221;-54
2023/09/09 07:30:44;;;;;;;6.85;2.25;;;;;;;16.71;64.67;100917.43;1663150;85;21249;-54
2023/09/09 07:33:53;;;;;;;7.55;1.80;;;;;;;16.69;64.35;100918.16;1665986;86;21220;-57
2023/09/09 07:37:00;;;;;;;5.22;1.75;;;;;;;16.61;64.17;100921.07;1671580;85;21816;-55
2023/09/09 07:40:07;;;;;;;6.40;1.52;;;;;;;16.66;64.29;100914.41;1671638;86;21304;-55
2023/09/09 07:43:14;;;;;;;3.47;1.42;;;;;;;16.72;64.18;100926.56;1672347;85;21275;-55
2023/09/09 07:46:19;;;;;;;5.53;1.90;;;;;;;16.76;64.10;100925.11;1675804;85;21752;-55
2023/09/09 07:49:25;;;;;;;4.92;2.02;;;;;;;16.79;63.96;100924.70;1675626;84;21723;-55
2023/09/09 07:52:30;;;;;;;3.87;1.80;;;;;;;16.92;63.88;100935.86;1675702;85;21212;-54
2023/09/09 07:55:37;;;;;;;3.40;1.75;;;;;;;16.96;63.61;100927.47;1675897;85;21247;-55
2023/09/09 07:58:42;;;;;;;4.75;1.90;;;;;;;16.97;63.41;100930.02;1676018;85;21255;-54
2023/09/09 08:01:49;;;;;;;3.67;1.67;;;;;;;17.02;63.30;100930.80;1672294;85;21221;-54
2023/09/09 08:04:55;;;;;;;3.37;1.47;;;;;;;17.18;63.27;100931.84;1674977;85;21784;-55
2023/09/09 08:08:01;;;;;;;6.22;1.80;;;;;;;17.29;63.11;100940.94;1675458;85;21239;-56
2023/09/09 08:11:07;;;;;;;5.92;1.80;;;;;;;17.38;62.93;100936.92;1677332;80;21227;-55
2023/09/09 08:14:13;;;;;;;3.35;1.85;;;;;;;17.38;62.65;100948.86;1675248;85;21241;-56
2023/09/09 08:17:18;;;;;;;5.10;1.90;;;;;;;17.36;62.36;100941.84;1673128;85;21315;-55
2023/09/09 08:20:24;;;;;;;9.25;1.75;;;;;;;17.41;62.39;100941.53;1676404;85;21217;-55
2023/09/09 08:23:31;;;;;;;4.12;1.50;;;;;;;17.52;62.17;100949.83;1676827;85;21720;-55
2023/09/09 08:26:37;;;;;;;1.80;1.20;;;;;;;17.56;61.96;100949.72;1673884;85;21941;-56
2023/09/09 08:29:44;;;;;;;3.40;1.45;;;;;;;17.50;61.59;100964.40;1647531;86;21292;-54
2023/09/09 08:32:49;;;;;;;4.15;1.25;;;;;;;17.51;61.48;100961.42;1629536;87;21359;-57
2023/09/09 08:35:56;;;;;;;5.55;2.33;;;;;;;17.56;61.34;100963.05;1647992;86;21288;-54
2023/09/09 08:39:02;;;;;;;3.15;1.65;;;;;;;17.72;61.34;100965.45;1648372;87;21256;-56
2023/09/09 08:42:23;;;;;;;5.47;1.30;;;;;;;17.85;61.15;100967.41;1649158;87;21248;-55
2023/09/09 08:45:51;;;;;;;2.22;1.25;;;;;;;17.98;60.93;100970.22;1647058;86;21228;-55
2023/09/09 08:49:00;;;;;;;4.10;1.37;;;;;;;18.09;60.63;100969.60;1649428;86;21583;-55
2023/09/09 08:52:11;;;;;;;5.97;1.37;;;;;;;18.12;60.34;100974.72;1633193;86;21233;-56
2023/09/09 08:55:11;;;;;;;4.53;1.30;;;;;;;18.10;60.04;100972.68;1660417;85;21367;-56
2023/09/09 08:58:07;;;;;;;3.12;1.60;;;;;;;18.15;59.97;100959.05;1656336;85;21248;-54
2023/09/09 09:00:54;;;;;;;3.08;1.25;;;;;;;18.20;59.69;100961.19;1657630;85;21769;-55
2023/09/09 09:03:47;;;;;;;4.22;1.12;;;;;;;18.21;59.43;100972.58;1664188;85;21749;-53
2023/09/09 09:06:58;;;;;;;3.17;1.20;;;;;;;18.26;59.21;100987.53;1658044;85;21252;-54
2023/09/09 09:10:06;;;;;;;5.40;1.45;;;;;;;18.25;58.93;100983.59;1661574;85;21224;-60
2023/09/09 09:13:12;;;;;;;1.65;0.90;;;;;;;18.19;58.66;100985.27;1648898;86;21236;-56
2023/09/09 09:16:37;;;;;;;1.17;0.85;;;;;;;18.12;58.37;100986.33;1846854;76;22324;-56
2023/09/09 09:19:44;;;;;;;2.60;0.93;;;;;;;18.03;58.24;100998.12;1727471;78;21224;-53
2023/09/09 09:22:50;;;;;;;2.37;0.93;;;;;;;17.95;57.97;100999.70;1725774;79;21271;-57
2023/09/09 09:25:58;;;;;;;9.75;1.32;;;;;;;17.92;57.84;101002.89;1736212;79;21430;-54
2023/09/09 09:29:09;;;;;;;3.40;1.07;;;;;;;17.81;57.64;101008.51;1742682;77;21378;-54
2023/09/09 09:32:17;;;;;;;13.90;1.20;;;;;;;17.76;57.43;100997.19;1804672;79;21204;-56
2023/09/09 09:35:34;;;;;;;1.80;1.05;;;;;;;17.78;57.45;101006.67;1795109;79;21173;-54
2023/09/09 09:38:40;;;;;;;3.22;1.40;;;;;;;17.78;57.16;101010.31;1804641;79;22102;-58
2023/09/09 09:41:50;;;;;;;6.12;1.30;;;;;;;17.80;57.04;101015.12;1791254;79;21355;-55
2023/09/09 09:44:56;;;;;;;10.78;1.37;;;;;;;17.93;56.99;101012.06;1789979;79;21349;-55
2023/09/09 09:48:04;;;;;;;2.10;1.10;;;;;;;17.96;56.64;101022.20;1788960;79;21548;-56
2023/09/09 09:51:09;;;;;;;2.47;0.98;;;;;;;17.90;56.32;101024.43;1804806;79;21350;-55
2023/09/09 09:54:17;;;;;;;3.17;0.90;;;;;;;17.81;56.11;101029.28;1805062;79;21246;-55
2023/09/09 09:57:24;;;;;;;3.47;0.90;;;;;;;17.86;56.04;101048.05;1791102;79;21732;-55
2023/09/09 10:00:30;;;;;;;2.12;0.90;;;;;;;17.86;55.87;101049.44;1804601;79;21208;-56
2023/09/09 10:03:37;;;;;;;0.80;0.70;;;;;;;17.93;55.70;101055.31;1804117;79;21191;-55
2023/09/09 10:06:43;;;;;;;6.05;2.80;;;;;;;17.97;55.51;101050.22;1801303;79;21729;-55
2023/09/09 10:10:07;;;;;;;6.20;1.92;;;;;;;18.07;55.34;101048.45;1771151;80;21201;-54
2023/09/09 10:13:46;;;;;;;4.78;1.45;;;;;;;18.10;55.14;101059.11;1771079;80;21426;-55
2023/09/09 10:16:53;;;;;;;2.50;0.90;;;;;;;18.08;54.85;101057.94;1770830;80;21598;-55
2023/09/09 10:19:59;;;;;;;1.40;0.70;;;;;;;18.13;54.64;101062.33;1771467;80;21268;-55
2023/09/09 10:23:06;;;;;;;1.30;0.78;;;;;;;18.20;54.48;101063.22;1772643;80;21190;-55
2023/09/09 10:26:12;;;;;;;0.78;0.78;;;;;;;18.31;54.39;101061.73;1771777;80;21229;-56
2023/09/09 10:29:18;;;;;;;3.95;1.30;;;;;;;18.33;54.07;101066.00;1770225;80;21355;-54
2023/09/09 10:32:23;;;;;;;4.10;1.80;;;;;;;18.34;53.87;101059.41;1770408;79;21749;-54
2023/09/09 10:35:30;;;;;;;4.62;1.55;;;;;;;18.40;53.73;101057.21;1770781;80;21451;-55
2023/09/09 10:38:36;;;;;;;3.45;1.60;;;;;;;18.42;53.47;101052.31;1771071;79;21340;-55
2023/09/09 10:41:44;;;;;;;3.60;0.98;;;;;;;18.40;53.35;101068.30;1762739;81;21398;-55
2023/09/09 10:44:51;;;;;;;3.83;1.37;;;;;;;18.47;53.26;101060.00;1775816;79;21303;-55
2023/09/09 10:48:11;;;;;;;2.33;0.60;;;;;;;18.62;53.16;101073.12;1772803;80;21354;-55
2023/09/09 10:51:18;;;;;;;2.27;0.60;;;;;;;18.68;52.98;101075.91;1772550;81;21402;-55
2023/09/09 10:54:31;;;;;;;0.65;0.50;;;;;;;18.74;52.73;101075.06;1736827;81;21326;-56
2023/09/09 10:57:42;;;;;;;4.40;0.70;;;;;;;18.80;52.54;101083.08;1786051;79;21201;-55
2023/09/09 11:00:51;;;;;;;6.05;0.60;;;;;;;18.93;52.40;101084.48;1803328;79;21510;-56
2023/09/09 11:03:59;;;;;;;0.75;0.60;;;;;;;18.97;52.11;101087.14;1785296;79;21318;-56
2023/09/09 11:07:19;;;;;;;0.72;0.45;;;;;;;19.00;51.91;101092.27;1803868;79;21355;-55
2023/09/09 11:10:25;;;;;;;1.95;0.72;;;;;;;19.03;51.74;101081.59;1779004;79;21860;-55
2023/09/09 11:13:53;;;;;;;2.92;0.80;;;;;;;19.09;51.59;101084.06;1788956;79;21387;-57
2023/09/09 11:17:01;;;;;;;2.02;0.95;;;;;;;19.07;51.34;101070.41;1769864;79;21356;-55
2023/09/09 11:20:08;;;;;;;3.80;1.30;;;;;;;19.07;51.18;101070.41;1769065;80;21359;-57
2023/09/09 11:23:13;;;;;;;5.08;0.93;;;;;;;19.23;51.17;101085.20;1770336;80;21370;-56
2023/09/09 11:26:23;;;;;;;1.57;0.80;;;;;;;19.36;51.01;101074.64;1770566;80;21351;-56
2023/09/09 11:29:29;;;;;;;8.55;0.80;;;;;;;19.50;50.98;101085.22;1770251;80;21386;-55
2023/09/09 11:32:36;;;;;;;3.75;0.80;;;;;;;19.54;50.62;101090.64;1769854;80;21325;-59
2023/09/09 11:35:43;;;;;;;4.00;0.80;;;;;;;19.49;50.23;101102.96;1770073;80;21399;-56
2023/09/09 11:38:49;;;;;;;8.00;0.72;;;;;;;19.42;49.99;101094.64;1770307;80;21899;-54
2023/09/09 11:42:01;;;;;;;2.27;0.80;;;;;;;19.42;49.78;101089.61;1683283;83;21357;-56
2023/09/09 11:45:09;;;;;;;1.95;0.68;;;;;;;19.43;49.69;101077.41;1679420;84;21501;-54
2023/09/09 11:48:16;;;;;;;4.78;0.65;;;;;;;19.45;49.49;101087.78;1639616;86;21263;-55
2023/09/09 11:51:22;;;;;;;3.33;0.62;;;;;;;19.54;49.40;101085.95;1655103;84;21903;-55
2023/09/09 11:54:28;;;;;;;1.25;0.40;;;;;;;19.52;49.02;101096.97;1678947;84;21231;-56
2023/09/09 11:57:34;;;;;;;4.03;0.60;;;;;;;19.45;48.86;101089.17;1679444;84;21275;-56
2023/09/09 12:00:39;;;;;;;2.70;0.75;;;;;;;19.39;48.65;101098.37;1679445;84;21402;-54
2023/09/09 12:03:45;;;;;;;3.87;1.40;;;;;;;19.44;48.57;101098.58;1678913;85;21208;-56
2023/09/09 12:06:53;;;;;;;1.07;0.53;;;;;;;19.46;48.36;101104.75;1678582;85;21659;-57
2023/09/09 12:09:59;;;;;;;1.00;0.40;;;;;;;19.34;48.07;101105.97;1678367;84;21347;-54
2023/09/09 12:13:05;;;;;;;2.35;0.80;;;;;;;19.24;47.87;101088.32;1672487;85;21209;-54
2023/09/09 12:16:14;;;;;;;3.35;0.70;;;;;;;19.25;47.88;101096.09;1674543;84;21216;-55
2023/09/09 12:19:20;;;;;;;3.42;0.75;;;;;;;19.30;47.83;101089.40;1672487;85;21208;-53
2023/09/09 12:22:52;;;;;;;1.10;0.72;;;;;;;19.31;47.70;101100.84;1651044;86;21227;-55
2023/09/09 12:25:51;;;;;;;1.75;0.60;;;;;;;19.31;47.50;101098.06;1632145;86;21234;-56
2023/09/09 12:29:17;;;;;;;1.27;0.47;;;;;;;19.30;47.38;101099.11;1652226;86;21223;-55
2023/09/09 12:32:23;;;;;;;3.75;0.60;;;;;;;19.35;47.26;101102.11;1651143;85;21222;-55
2023/09/09 12:35:32;;;;;;;1.17;0.50;;;;;;;19.38;47.08;101103.06;1652311;85;21882;-55
2023/09/09 12:38:46;;;;;;;2.25;0.80;;;;;;;19.43;46.93;101101.02;1652093;86;21255;-56
2023/09/09 12:41:54;;;;;;;1.50;0.55;;;;;;;19.32;46.52;101105.31;1676760;85;21323;-55
2023/09/09 12:45:00;;;;;;;4.25;0.50;;;;;;;19.19;46.36;101101.98;1633081;84;21220;-56
2023/09/09 12:48:17;;;;;;;1.87;0.50;;;;;;;19.16;46.27;101101.03;1674203;82;21858;-56
2023/09/09 12:51:23;;;;;;;1.57;0.50;;;;;;;19.10;46.06;101099.11;1665811;84;21855;-58
2023/09/09 12:54:30;;;;;;;1.92;0.70;;;;;;;18.98;45.90;101093.86;1674407;80;21393;-57
2023/09/09 12:57:36;;;;;;;1.47;0.57;;;;;;;18.94;45.79;101099.53;1664781;82;21633;-55
2023/09/09 13:00:43;;;;;;;2.10;0.60;;;;;;;18.95;45.82;101098.98;1673240;82;21362;-57
2023/09/09 13:03:52;;;;;;;0.50;0.50;;;;;;;18.96;45.67;101107.64;1697296;83;21416;-56
2023/09/09 13:06:58;;;;;;;1.25;0.70;;;;;;;18.89;45.58;101114.58;1700413;83;21429;-57
2023/09/09 13:13:19;;;;;;;3.80;1.37;;;;;;;18.89;45.34;101111.80;1703231;83;21737;-55
2023/09/09 13:16:25;;;;;;;5.95;1.80;;;;;;;18.81;45.16;101116.69;1690419;81;22357;-56
2023/09/09 13:19:31;;;;;;;2.42;1.10;;;;;;;18.71;45.11;101111.55;1658263;83;21238;-55
2023/09/09 13:22:37;;;;;;;1.72;0.80;;;;;;;18.67;45.00;101115.83;1651875;83;21426;-55
2023/09/09 13:25:46;;;;;;;1.80;0.78;;;;;;;18.61;44.91;101116.67;1664921;84;21370;-53
2023/09/09 13:28:51;;;;;;;1.67;0.90;;;;;;;18.55;44.83;101114.71;1687036;81;21840;-54
2023/09/09 13:32:01;;;;;;;1.40;0.70;;;;;;;18.52;44.82;101116.52;1680965;83;21682;-57
2023/09/09 13:35:08;;;;;;;1.47;0.82;;;;;;;18.53;44.76;101118.25;1687197;82;21883;-54
2023/09/09 13:38:15;;;;;;;1.22;0.60;;;;;;;18.54;44.67;101128.27;1686647;85;21453;-54
2023/09/09 13:41:26;;;;;;;1.67;0.98;;;;;;;18.54;44.56;101137.97;1687130;82;21357;-55
2023/09/09 13:44:33;;;;;;;1.65;1.00;;;;;;;18.54;44.52;101131.05;1679727;83;21231;-55
2023/09/09 13:47:40;;;;;;;1.42;0.93;;;;;;;18.56;44.46;101142.80;1676916;82;21234;-55
2023/09/09 13:50:49;;;;;;;3.35;1.10;;;;;;;18.56;44.41;101133.61;1677668;83;21873;-54
2023/09/09 13:53:55;;;;;;;3.15;0.90;;;;;;;18.56;44.34;101145.56;1656752;85;21764;-55
2023/09/09 13:57:03;;;;;;;1.95;0.80;;;;;;;18.52;44.21;101153.95;1657915;83;21377;-56
2023/09/09 14:00:09;;;;;;;2.05;0.90;;;;;;;18.45;44.10;101150.33;1657926;85;21298;-56
2023/09/09 14:03:16;;;;;;;2.37;0.60;;;;;;;18.35;43.97;101149.82;1625503;87;21227;-56
2023/09/09 14:06:23;;;;;;;1.22;0.80;;;;;;;18.31;43.96;101152.70;1682458;84;21283;-56
2023/09/09 14:09:30;;;;;;;4.12;0.93;;;;;;;18.28;43.90;101164.20;1678248;83;21243;-56
2023/09/09 14:12:41;;;;;;;1.62;0.80;;;;;;;18.30;43.92;101169.55;1649066;87;21260;-55
2023/09/09 14:15:44;;;;;;;2.17;0.80;;;;;;;18.29;43.88;101163.13;1647163;85;21761;-56
2023/09/09 14:18:50;;;;;;;2.65;1.15;;;;;;;18.28;43.81;101171.14;1670813;82;21219;-55
2023/09/09 14:21:57;;;;;;;2.52;0.80;;;;;;;18.30;43.75;101164.83;1662186;82;21223;-55
2023/09/09 14:25:03;;;;;;;2.27;0.50;;;;;;;18.28;43.72;101155.03;1651809;85;21573;-55
2023/09/09 14:28:09;;;;;;;2.35;0.68;;;;;;;18.29;43.69;101156.20;1672402;82;21755;-56
2023/09/09 14:31:14;;;;;;;1.92;0.80;;;;;;;18.27;43.62;101154.16;1669879;80;21872;-55